sensor_id;sensor_type;location;lat;lon;timestamp;P1;durP1;ratioP1;P2;durP2;ratioP2
2474;SDS011;1248;48.694;10.160;2022-11-04T00:01:41;3.43;;;1.83;;
2474;SDS011;1248;48.694;10.160;2022-11-04T00:04:10;2.30;;;1.87;;
2474;SDS011;1248;48.694;10.160;2022-11-04T00:06:38;2.80;;;1.73;;
2474;SDS011;1248;48.694;10.160;2022-11-04T00:09:06;2.77;;;2.10;;
2474;SDS011;1248;48.694;10.160;2022-11-04T00:11:35;2.10;;;1.63;;
2474;SDS011;1248;48.694;10.160;2022-11-04T00:14:20;1.93;;;1.57;;
2474;SDS011;1248;48.694;10.160;2022-11-04T00:16:47;2.80;;;2.23;;
2474;SDS011;1248;48.694;10.160;2022-11-04T00:19:31;2.53;;;2.33;;
2474;SDS011;1248;48.694;10.160;2022-11-04T00:22:20;4.37;;;1.80;;
2474;SDS011;1248;48.694;10.160;2022-11-04T00:25:05;2.90;;;1.67;;
2474;SDS011;1248;48.694;10.160;2022-11-04T00:27:51;3.63;;;2.30;;
2474;SDS011;1248;48.694;10.160;2022-11-04T00:30:36;2.30;;;1.90;;
2474;SDS011;1248;48.694;10.160;2022-11-04T00:33:03;1.97;;;1.83;;
2474;SDS011;1248;48.694;10.160;2022-11-04T00:35:48;2.10;;;1.90;;
2474;SDS011;1248;48.694;10.160;2022-11-04T00:38:16;2.40;;;2.20;;
2474;SDS011;1248;48.694;10.160;2022-11-04T00:40:44;2.70;;;1.80;;
2474;SDS011;1248;48.694;10.160;2022-11-04T00:43:11;3.67;;;2.57;;
2474;SDS011;1248;48.694;10.160;2022-11-04T00:45:39;2.70;;;1.40;;
2474;SDS011;1248;48.694;10.160;2022-11-04T00:48:06;2.00;;;1.80;;
2474;SDS011;1248;48.694;10.160;2022-11-04T00:50:34;2.90;;;2.20;;
2474;SDS011;1248;48.694;10.160;2022-11-04T00:53:01;2.63;;;1.80;;
2474;SDS011;1248;48.694;10.160;2022-11-04T00:55:30;3.07;;;2.03;;
2474;SDS011;1248;48.694;10.160;2022-11-04T00:57:57;4.93;;;2.10;;
2474;SDS011;1248;48.694;10.160;2022-11-04T01:00:24;2.27;;;1.70;;
2474;SDS011;1248;48.694;10.160;2022-11-04T01:02:52;3.40;;;1.60;;
2474;SDS011;1248;48.694;10.160;2022-11-04T01:05:19;3.33;;;1.53;;
2474;SDS011;1248;48.694;10.160;2022-11-04T01:07:46;2.77;;;1.87;;
2474;SDS011;1248;48.694;10.160;2022-11-04T01:10:13;2.27;;;1.90;;
2474;SDS011;1248;48.694;10.160;2022-11-04T01:12:42;1.60;;;1.50;;
2474;SDS011;1248;48.694;10.160;2022-11-04T01:15:09;1.60;;;1.50;;
2474;SDS011;1248;48.694;10.160;2022-11-04T01:17:36;1.97;;;1.77;;
2474;SDS011;1248;48.694;10.160;2022-11-04T01:20:03;1.60;;;1.50;;
2474;SDS011;1248;48.694;10.160;2022-11-04T01:22:31;1.93;;;1.60;;
2474;SDS011;1248;48.694;10.160;2022-11-04T01:24:58;2.20;;;1.67;;
2474;SDS011;1248;48.694;10.160;2022-11-04T01:27:25;2.30;;;1.80;;
2474;SDS011;1248;48.694;10.160;2022-11-04T01:29:53;1.50;;;1.40;;
2474;SDS011;1248;48.694;10.160;2022-11-04T01:32:20;4.70;;;1.63;;
2474;SDS011;1248;48.694;10.160;2022-11-04T01:34:47;1.60;;;1.50;;
2474;SDS011;1248;48.694;10.160;2022-11-04T01:37:15;2.70;;;1.40;;
2474;SDS011;1248;48.694;10.160;2022-11-04T01:39:42;1.93;;;1.70;;
2474;SDS011;1248;48.694;10.160;2022-11-04T01:42:11;2.20;;;1.60;;
2474;SDS011;1248;48.694;10.160;2022-11-04T01:44:50;1.70;;;1.53;;
2474;SDS011;1248;48.694;10.160;2022-11-04T01:47:20;3.70;;;1.80;;
2474;SDS011;1248;48.694;10.160;2022-11-04T01:49:50;1.70;;;1.53;;
2474;SDS011;1248;48.694;10.160;2022-11-04T01:52:21;1.77;;;1.67;;
2474;SDS011;1248;48.694;10.160;2022-11-04T01:54:51;1.97;;;1.70;;
2474;SDS011;1248;48.694;10.160;2022-11-04T01:57:22;1.87;;;1.67;;
2474;SDS011;1248;48.694;10.160;2022-11-04T01:59:51;2.87;;;2.07;;
2474;SDS011;1248;48.694;10.160;2022-11-04T02:02:19;2.33;;;1.57;;
2474;SDS011;1248;48.694;10.160;2022-11-04T02:04:47;2.37;;;1.60;;
2474;SDS011;1248;48.694;10.160;2022-11-04T02:07:14;1.90;;;1.77;;
2474;SDS011;1248;48.694;10.160;2022-11-04T02:09:41;3.40;;;1.77;;
2474;SDS011;1248;48.694;10.160;2022-11-04T02:12:09;2.43;;;1.90;;
2474;SDS011;1248;48.694;10.160;2022-11-04T02:14:54;3.60;;;2.20;;
2474;SDS011;1248;48.694;10.160;2022-11-04T02:17:28;2.70;;;1.70;;
2474;SDS011;1248;48.694;10.160;2022-11-04T02:20:07;1.90;;;1.60;;
2474;SDS011;1248;48.694;10.160;2022-11-04T02:31:43;3.20;;;1.83;;
2474;SDS011;1248;48.694;10.160;2022-11-04T02:34:15;3.60;;;2.27;;
2474;SDS011;1248;48.694;10.160;2022-11-04T02:36:45;4.37;;;2.10;;
2474;SDS011;1248;48.694;10.160;2022-11-04T02:39:16;3.00;;;1.90;;
2474;SDS011;1248;48.694;10.160;2022-11-04T02:41:50;1.87;;;1.47;;
2474;SDS011;1248;48.694;10.160;2022-11-04T02:44:25;3.50;;;2.10;;
2474;SDS011;1248;48.694;10.160;2022-11-04T02:46:56;2.07;;;1.87;;
2474;SDS011;1248;48.694;10.160;2022-11-04T02:49:27;2.03;;;1.83;;
2474;SDS011;1248;48.694;10.160;2022-11-04T02:51:59;2.13;;;1.80;;
2474;SDS011;1248;48.694;10.160;2022-11-04T02:54:30;2.17;;;1.97;;
2474;SDS011;1248;48.694;10.160;2022-11-04T02:56:59;2.93;;;1.70;;
2474;SDS011;1248;48.694;10.160;2022-11-04T02:59:30;2.40;;;1.97;;
2474;SDS011;1248;48.694;10.160;2022-11-04T03:02:02;2.07;;;1.87;;
2474;SDS011;1248;48.694;10.160;2022-11-04T03:04:31;4.23;;;1.80;;
2474;SDS011;1248;48.694;10.160;2022-11-04T03:07:01;2.90;;;1.67;;
2474;SDS011;1248;48.694;10.160;2022-11-04T03:09:29;2.17;;;1.80;;
2474;SDS011;1248;48.694;10.160;2022-11-04T03:11:57;1.77;;;1.47;;
2474;SDS011;1248;48.694;10.160;2022-11-04T03:14:28;2.10;;;1.90;;
2474;SDS011;1248;48.694;10.160;2022-11-04T03:17:02;2.77;;;1.80;;
2474;SDS011;1248;48.694;10.160;2022-11-04T03:19:32;1.67;;;1.47;;
2474;SDS011;1248;48.694;10.160;2022-11-04T03:22:04;2.37;;;1.70;;
2474;SDS011;1248;48.694;10.160;2022-11-04T03:24:35;1.83;;;1.70;;
2474;SDS011;1248;48.694;10.160;2022-11-04T03:27:04;2.33;;;1.70;;
2474;SDS011;1248;48.694;10.160;2022-11-04T03:29:36;1.43;;;1.33;;
2474;SDS011;1248;48.694;10.160;2022-11-04T03:32:06;1.60;;;1.50;;
2474;SDS011;1248;48.694;10.160;2022-11-04T03:34:37;1.60;;;1.40;;
2474;SDS011;1248;48.694;10.160;2022-11-04T03:37:04;1.73;;;1.63;;
2474;SDS011;1248;48.694;10.160;2022-11-04T03:39:32;1.43;;;1.30;;
2474;SDS011;1248;48.694;10.160;2022-11-04T03:41:59;1.53;;;1.40;;
2474;SDS011;1248;48.694;10.160;2022-11-04T03:44:46;2.80;;;1.30;;
2474;SDS011;1248;48.694;10.160;2022-11-04T03:47:14;1.43;;;1.10;;
2474;SDS011;1248;48.694;10.160;2022-11-04T03:49:43;2.50;;;1.40;;
2474;SDS011;1248;48.694;10.160;2022-11-04T03:52:10;1.60;;;1.30;;
2474;SDS011;1248;48.694;10.160;2022-11-04T03:54:37;1.67;;;1.30;;
2474;SDS011;1248;48.694;10.160;2022-11-04T03:57:20;1.37;;;1.10;;
2474;SDS011;1248;48.694;10.160;2022-11-04T04:02:40;1.60;;;1.13;;
2474;SDS011;1248;48.694;10.160;2022-11-04T04:05:13;2.17;;;1.30;;
2474;SDS011;1248;48.694;10.160;2022-11-04T04:07:47;1.40;;;1.30;;
2474;SDS011;1248;48.694;10.160;2022-11-04T04:10:17;7.17;;;1.20;;
2474;SDS011;1248;48.694;10.160;2022-11-04T04:13:16;1.30;;;1.10;;
2474;SDS011;1248;48.694;10.160;2022-11-04T04:15:48;1.73;;;1.30;;
2474;SDS011;1248;48.694;10.160;2022-11-04T04:18:22;1.20;;;1.10;;
2474;SDS011;1248;48.694;10.160;2022-11-04T04:20:54;1.67;;;1.10;;
2474;SDS011;1248;48.694;10.160;2022-11-04T04:23:22;1.20;;;1.10;;
2474;SDS011;1248;48.694;10.160;2022-11-04T04:26:09;2.03;;;1.50;;
2474;SDS011;1248;48.694;10.160;2022-11-04T04:28:55;1.57;;;1.30;;
2474;SDS011;1248;48.694;10.160;2022-11-04T04:31:24;2.90;;;1.40;;
2474;SDS011;1248;48.694;10.160;2022-11-04T04:34:08;2.30;;;1.67;;
2474;SDS011;1248;48.694;10.160;2022-11-04T04:36:38;1.70;;;1.30;;
2474;SDS011;1248;48.694;10.160;2022-11-04T04:39:07;1.40;;;1.10;;
2474;SDS011;1248;48.694;10.160;2022-11-04T04:41:52;1.77;;;1.30;;
2474;SDS011;1248;48.694;10.160;2022-11-04T04:44:38;2.60;;;1.40;;
2474;SDS011;1248;48.694;10.160;2022-11-04T04:47:27;1.93;;;1.37;;
2474;SDS011;1248;48.694;10.160;2022-11-04T04:49:58;1.43;;;1.27;;
2474;SDS011;1248;48.694;10.160;2022-11-04T04:52:26;1.40;;;1.30;;
2474;SDS011;1248;48.694;10.160;2022-11-04T04:54:57;1.60;;;1.30;;
2474;SDS011;1248;48.694;10.160;2022-11-04T04:57:24;1.40;;;1.17;;
2474;SDS011;1248;48.694;10.160;2022-11-04T04:59:51;2.17;;;1.20;;
2474;SDS011;1248;48.694;10.160;2022-11-04T05:02:18;1.87;;;1.27;;
2474;SDS011;1248;48.694;10.160;2022-11-04T05:04:46;1.30;;;1.20;;
2474;SDS011;1248;48.694;10.160;2022-11-04T05:07:13;1.50;;;1.40;;
2474;SDS011;1248;48.694;10.160;2022-11-04T05:09:41;3.90;;;1.30;;
2474;SDS011;1248;48.694;10.160;2022-11-04T05:12:08;2.13;;;1.10;;
2474;SDS011;1248;48.694;10.160;2022-11-04T05:14:35;1.13;;;1.03;;
2474;SDS011;1248;48.694;10.160;2022-11-04T05:17:03;1.50;;;1.40;;
2474;SDS011;1248;48.694;10.160;2022-11-04T05:19:30;2.07;;;1.20;;
2474;SDS011;1248;48.694;10.160;2022-11-04T05:21:58;1.43;;;1.03;;
2474;SDS011;1248;48.694;10.160;2022-11-04T05:24:25;2.33;;;1.50;;
2474;SDS011;1248;48.694;10.160;2022-11-04T05:26:52;1.40;;;1.30;;
2474;SDS011;1248;48.694;10.160;2022-11-04T05:29:20;1.83;;;1.30;;
2474;SDS011;1248;48.694;10.160;2022-11-04T05:31:47;1.40;;;1.30;;
2474;SDS011;1248;48.694;10.160;2022-11-04T05:34:14;1.67;;;1.30;;
2474;SDS011;1248;48.694;10.160;2022-11-04T05:36:41;1.30;;;1.17;;
2474;SDS011;1248;48.694;10.160;2022-11-04T05:39:11;1.60;;;1.50;;
2474;SDS011;1248;48.694;10.160;2022-11-04T05:41:38;1.67;;;1.33;;
2474;SDS011;1248;48.694;10.160;2022-11-04T05:44:05;1.43;;;1.33;;
2474;SDS011;1248;48.694;10.160;2022-11-04T05:46:34;3.10;;;1.20;;
2474;SDS011;1248;48.694;10.160;2022-11-04T05:49:01;4.70;;;1.43;;
2474;SDS011;1248;48.694;10.160;2022-11-04T05:51:28;2.37;;;1.70;;
2474;SDS011;1248;48.694;10.160;2022-11-04T05:53:55;1.50;;;1.40;;
2474;SDS011;1248;48.694;10.160;2022-11-04T05:56:24;2.60;;;1.90;;
2474;SDS011;1248;48.694;10.160;2022-11-04T05:58:51;2.17;;;1.77;;
2474;SDS011;1248;48.694;10.160;2022-11-04T06:01:22;2.00;;;1.83;;
2474;SDS011;1248;48.694;10.160;2022-11-04T06:03:54;2.67;;;1.80;;
2474;SDS011;1248;48.694;10.160;2022-11-04T06:06:22;2.00;;;1.80;;
2474;SDS011;1248;48.694;10.160;2022-11-04T06:08:50;1.77;;;1.53;;
2474;SDS011;1248;48.694;10.160;2022-11-04T06:11:17;2.70;;;1.83;;
2474;SDS011;1248;48.694;10.160;2022-11-04T06:13:46;3.20;;;1.80;;
2474;SDS011;1248;48.694;10.160;2022-11-04T06:16:13;2.93;;;1.87;;
2474;SDS011;1248;48.694;10.160;2022-11-04T06:18:41;1.53;;;1.43;;
2474;SDS011;1248;48.694;10.160;2022-11-04T06:21:09;2.47;;;1.67;;
2474;SDS011;1248;48.694;10.160;2022-11-04T06:23:45;2.60;;;1.93;;
2474;SDS011;1248;48.694;10.160;2022-11-04T06:26:13;2.93;;;2.23;;
2474;SDS011;1248;48.694;10.160;2022-11-04T06:28:40;4.00;;;1.73;;
2474;SDS011;1248;48.694;10.160;2022-11-04T06:31:09;4.97;;;2.73;;
2474;SDS011;1248;48.694;10.160;2022-11-04T06:33:38;5.60;;;2.40;;
2474;SDS011;1248;48.694;10.160;2022-11-04T06:36:06;6.93;;;2.90;;
2474;SDS011;1248;48.694;10.160;2022-11-04T06:38:35;3.47;;;1.70;;
2474;SDS011;1248;48.694;10.160;2022-11-04T06:41:03;2.13;;;1.93;;
2474;SDS011;1248;48.694;10.160;2022-11-04T06:43:30;5.13;;;2.33;;
2474;SDS011;1248;48.694;10.160;2022-11-04T06:45:58;2.23;;;1.87;;
2474;SDS011;1248;48.694;10.160;2022-11-04T06:48:28;2.00;;;1.80;;
2474;SDS011;1248;48.694;10.160;2022-11-04T06:50:56;3.37;;;1.83;;
2474;SDS011;1248;48.694;10.160;2022-11-04T06:53:23;4.27;;;2.30;;
2474;SDS011;1248;48.694;10.160;2022-11-04T06:55:51;11.03;;;2.37;;
2474;SDS011;1248;48.694;10.160;2022-11-04T06:58:18;5.53;;;1.80;;
2474;SDS011;1248;48.694;10.160;2022-11-04T07:00:49;2.67;;;1.97;;
2474;SDS011;1248;48.694;10.160;2022-11-04T07:03:17;3.43;;;2.20;;
2474;SDS011;1248;48.694;10.160;2022-11-04T07:05:45;3.07;;;2.50;;
2474;SDS011;1248;48.694;10.160;2022-11-04T07:08:12;1.70;;;1.60;;
2474;SDS011;1248;48.694;10.160;2022-11-04T07:10:39;3.97;;;2.00;;
2474;SDS011;1248;48.694;10.160;2022-11-04T07:13:06;4.20;;;2.10;;
2474;SDS011;1248;48.694;10.160;2022-11-04T07:15:34;8.30;;;2.37;;
2474;SDS011;1248;48.694;10.160;2022-11-04T07:18:01;3.73;;;2.87;;
2474;SDS011;1248;48.694;10.160;2022-11-04T07:20:28;6.73;;;2.37;;
2474;SDS011;1248;48.694;10.160;2022-11-04T07:22:57;3.90;;;2.43;;
2474;SDS011;1248;48.694;10.160;2022-11-04T07:25:24;2.83;;;2.47;;
2474;SDS011;1248;48.694;10.160;2022-11-04T07:27:51;2.33;;;2.13;;
2474;SDS011;1248;48.694;10.160;2022-11-04T07:30:18;3.10;;;2.20;;
2474;SDS011;1248;48.694;10.160;2022-11-04T07:32:46;5.00;;;2.37;;
2474;SDS011;1248;48.694;10.160;2022-11-04T07:35:13;9.63;;;2.70;;
2474;SDS011;1248;48.694;10.160;2022-11-04T07:37:40;5.00;;;3.40;;
2474;SDS011;1248;48.694;10.160;2022-11-04T07:40:12;5.30;;;4.27;;
2474;SDS011;1248;48.694;10.160;2022-11-04T07:42:39;6.70;;;5.00;;
2474;SDS011;1248;48.694;10.160;2022-11-04T07:45:06;6.83;;;4.40;;
2474;SDS011;1248;48.694;10.160;2022-11-04T07:47:34;6.37;;;4.37;;
2474;SDS011;1248;48.694;10.160;2022-11-04T07:50:01;4.17;;;3.70;;
2474;SDS011;1248;48.694;10.160;2022-11-04T07:52:29;7.50;;;4.90;;
2474;SDS011;1248;48.694;10.160;2022-11-04T07:54:56;4.60;;;4.20;;
2474;SDS011;1248;48.694;10.160;2022-11-04T07:57:24;5.87;;;3.90;;
2474;SDS011;1248;48.694;10.160;2022-11-04T07:59:51;9.60;;;7.00;;
2474;SDS011;1248;48.694;10.160;2022-11-04T08:02:19;6.93;;;4.90;;
2474;SDS011;1248;48.694;10.160;2022-11-04T08:04:46;10.17;;;5.73;;
2474;SDS011;1248;48.694;10.160;2022-11-04T08:07:15;10.63;;;4.77;;
2474;SDS011;1248;48.694;10.160;2022-11-04T08:09:42;5.70;;;3.90;;
2474;SDS011;1248;48.694;10.160;2022-11-04T08:12:09;5.70;;;3.50;;
2474;SDS011;1248;48.694;10.160;2022-11-04T08:14:38;8.37;;;3.13;;
2474;SDS011;1248;48.694;10.160;2022-11-04T08:17:05;4.27;;;2.50;;
2474;SDS011;1248;48.694;10.160;2022-11-04T08:19:32;6.60;;;3.00;;
2474;SDS011;1248;48.694;10.160;2022-11-04T08:21:59;5.07;;;2.80;;
2474;SDS011;1248;48.694;10.160;2022-11-04T08:24:26;9.23;;;2.60;;
2474;SDS011;1248;48.694;10.160;2022-11-04T08:26:53;5.30;;;3.13;;
2474;SDS011;1248;48.694;10.160;2022-11-04T08:29:20;7.10;;;2.93;;
2474;SDS011;1248;48.694;10.160;2022-11-04T08:31:49;4.80;;;3.33;;
2474;SDS011;1248;48.694;10.160;2022-11-04T08:34:16;3.27;;;2.50;;
2474;SDS011;1248;48.694;10.160;2022-11-04T08:36:44;3.70;;;2.60;;
2474;SDS011;1248;48.694;10.160;2022-11-04T08:39:11;4.33;;;2.53;;
2474;SDS011;1248;48.694;10.160;2022-11-04T08:41:39;4.50;;;3.03;;
2474;SDS011;1248;48.694;10.160;2022-11-04T08:44:10;8.60;;;2.40;;
2474;SDS011;1248;48.694;10.160;2022-11-04T08:46:39;4.40;;;2.90;;
2474;SDS011;1248;48.694;10.160;2022-11-04T08:49:08;3.23;;;2.30;;
2474;SDS011;1248;48.694;10.160;2022-11-04T08:51:37;6.70;;;2.73;;
2474;SDS011;1248;48.694;10.160;2022-11-04T08:54:05;3.00;;;2.23;;
2474;SDS011;1248;48.694;10.160;2022-11-04T08:56:33;4.87;;;2.23;;
2474;SDS011;1248;48.694;10.160;2022-11-04T08:59:02;2.73;;;1.87;;
2474;SDS011;1248;48.694;10.160;2022-11-04T09:01:30;4.40;;;2.50;;
2474;SDS011;1248;48.694;10.160;2022-11-04T09:03:58;2.50;;;2.10;;
2474;SDS011;1248;48.694;10.160;2022-11-04T09:06:28;2.80;;;1.63;;
2474;SDS011;1248;48.694;10.160;2022-11-04T09:08:57;1.97;;;1.80;;
2474;SDS011;1248;48.694;10.160;2022-11-04T09:11:28;4.60;;;2.10;;
2474;SDS011;1248;48.694;10.160;2022-11-04T09:13:57;3.50;;;1.73;;
2474;SDS011;1248;48.694;10.160;2022-11-04T09:16:26;3.33;;;2.20;;
2474;SDS011;1248;48.694;10.160;2022-11-04T09:18:54;6.50;;;2.20;;
2474;SDS011;1248;48.694;10.160;2022-11-04T09:21:22;6.57;;;2.53;;
2474;SDS011;1248;48.694;10.160;2022-11-04T09:23:51;2.73;;;1.77;;
2474;SDS011;1248;48.694;10.160;2022-11-04T09:26:19;4.67;;;2.50;;
2474;SDS011;1248;48.694;10.160;2022-11-04T09:28:46;3.00;;;2.27;;
2474;SDS011;1248;48.694;10.160;2022-11-04T09:31:14;7.23;;;2.97;;
2474;SDS011;1248;48.694;10.160;2022-11-04T09:33:42;5.30;;;3.07;;
2474;SDS011;1248;48.694;10.160;2022-11-04T09:36:10;8.40;;;3.13;;
2474;SDS011;1248;48.694;10.160;2022-11-04T09:38:39;3.60;;;2.70;;
2474;SDS011;1248;48.694;10.160;2022-11-04T09:41:10;3.40;;;2.67;;
2474;SDS011;1248;48.694;10.160;2022-11-04T09:43:50;5.83;;;3.27;;
2474;SDS011;1248;48.694;10.160;2022-11-04T09:46:20;4.97;;;2.47;;
2474;SDS011;1248;48.694;10.160;2022-11-04T09:48:49;3.33;;;2.70;;
2474;SDS011;1248;48.694;10.160;2022-11-04T09:51:19;4.30;;;2.27;;
2474;SDS011;1248;48.694;10.160;2022-11-04T09:53:49;6.20;;;2.30;;
2474;SDS011;1248;48.694;10.160;2022-11-04T09:56:19;4.47;;;2.40;;
2474;SDS011;1248;48.694;10.160;2022-11-04T09:58:48;9.57;;;2.50;;
2474;SDS011;1248;48.694;10.160;2022-11-04T10:01:20;3.77;;;2.80;;
2474;SDS011;1248;48.694;10.160;2022-11-04T10:03:55;6.03;;;3.43;;
2474;SDS011;1248;48.694;10.160;2022-11-04T10:06:30;5.00;;;2.50;;
2474;SDS011;1248;48.694;10.160;2022-11-04T10:09:21;6.43;;;3.30;;
2474;SDS011;1248;48.694;10.160;2022-11-04T10:11:55;4.10;;;2.63;;
2474;SDS011;1248;48.694;10.160;2022-11-04T10:14:36;3.97;;;2.57;;
2474;SDS011;1248;48.694;10.160;2022-11-04T10:17:19;10.97;;;2.40;;
2474;SDS011;1248;48.694;10.160;2022-11-04T10:19:57;3.30;;;2.27;;
2474;SDS011;1248;48.694;10.160;2022-11-04T10:22:36;6.20;;;3.20;;
2474;SDS011;1248;48.694;10.160;2022-11-04T10:25:10;4.23;;;2.67;;
2474;SDS011;1248;48.694;10.160;2022-11-04T10:27:41;6.13;;;3.10;;
2474;SDS011;1248;48.694;10.160;2022-11-04T10:30:13;5.00;;;3.10;;
2474;SDS011;1248;48.694;10.160;2022-11-04T10:32:44;11.17;;;3.60;;
2474;SDS011;1248;48.694;10.160;2022-11-04T10:35:20;3.93;;;3.27;;
2474;SDS011;1248;48.694;10.160;2022-11-04T10:37:50;4.53;;;2.57;;
2474;SDS011;1248;48.694;10.160;2022-11-04T10:40:19;11.13;;;3.30;;
2474;SDS011;1248;48.694;10.160;2022-11-04T10:42:51;7.13;;;2.50;;
2474;SDS011;1248;48.694;10.160;2022-11-04T10:45:19;3.33;;;2.23;;
2474;SDS011;1248;48.694;10.160;2022-11-04T10:47:50;5.20;;;2.30;;
2474;SDS011;1248;48.694;10.160;2022-11-04T10:50:25;3.00;;;2.00;;
2474;SDS011;1248;48.694;10.160;2022-11-04T10:53:01;2.93;;;2.50;;
2474;SDS011;1248;48.694;10.160;2022-11-04T10:55:37;4.60;;;2.60;;
2474;SDS011;1248;48.694;10.160;2022-11-04T10:58:11;6.67;;;2.80;;
2474;SDS011;1248;48.694;10.160;2022-11-04T11:00:43;9.60;;;2.70;;
2474;SDS011;1248;48.694;10.160;2022-11-04T11:03:23;7.40;;;3.00;;
2474;SDS011;1248;48.694;10.160;2022-11-04T11:05:53;4.60;;;2.37;;
2474;SDS011;1248;48.694;10.160;2022-11-04T11:08:27;6.00;;;3.90;;
2474;SDS011;1248;48.694;10.160;2022-11-04T11:10:55;7.23;;;3.40;;
2474;SDS011;1248;48.694;10.160;2022-11-04T11:13:24;3.20;;;2.67;;
2474;SDS011;1248;48.694;10.160;2022-11-04T11:16:06;3.43;;;2.10;;
2474;SDS011;1248;48.694;10.160;2022-11-04T11:18:36;4.40;;;2.10;;
2474;SDS011;1248;48.694;10.160;2022-11-04T11:21:08;5.03;;;1.90;;
2474;SDS011;1248;48.694;10.160;2022-11-04T11:23:39;5.00;;;1.93;;
2474;SDS011;1248;48.694;10.160;2022-11-04T11:26:08;2.30;;;1.40;;
2474;SDS011;1248;48.694;10.160;2022-11-04T11:28:38;2.20;;;1.70;;
2474;SDS011;1248;48.694;10.160;2022-11-04T11:31:07;2.97;;;1.77;;
2474;SDS011;1248;48.694;10.160;2022-11-04T11:33:39;3.97;;;2.00;;
2474;SDS011;1248;48.694;10.160;2022-11-04T11:36:17;2.10;;;1.63;;
2474;SDS011;1248;48.694;10.160;2022-11-04T11:38:58;1.77;;;1.20;;
2474;SDS011;1248;48.694;10.160;2022-11-04T11:41:28;4.33;;;2.10;;
2474;SDS011;1248;48.694;10.160;2022-11-04T11:44:01;2.63;;;1.60;;
2474;SDS011;1248;48.694;10.160;2022-11-04T11:46:31;6.33;;;2.00;;
2474;SDS011;1248;48.694;10.160;2022-11-04T11:49:00;2.43;;;1.40;;
2474;SDS011;1248;48.694;10.160;2022-11-04T11:51:29;5.10;;;1.93;;
2474;SDS011;1248;48.694;10.160;2022-11-04T11:54:02;2.27;;;1.47;;
2474;SDS011;1248;48.694;10.160;2022-11-04T11:56:40;8.13;;;1.70;;
2474;SDS011;1248;48.694;10.160;2022-11-04T11:59:15;3.33;;;1.60;;
2474;SDS011;1248;48.694;10.160;2022-11-04T12:01:46;2.60;;;1.53;;
2474;SDS011;1248;48.694;10.160;2022-11-04T12:04:16;1.70;;;1.17;;
2474;SDS011;1248;48.694;10.160;2022-11-04T12:06:47;5.37;;;2.23;;
2474;SDS011;1248;48.694;10.160;2022-11-04T12:09:21;2.90;;;1.30;;
2474;SDS011;1248;48.694;10.160;2022-11-04T12:11:58;3.47;;;1.63;;
2474;SDS011;1248;48.694;10.160;2022-11-04T12:14:36;3.40;;;1.50;;
2474;SDS011;1248;48.694;10.160;2022-11-04T12:17:11;2.30;;;1.73;;
2474;SDS011;1248;48.694;10.160;2022-11-04T12:19:48;3.47;;;1.40;;
2474;SDS011;1248;48.694;10.160;2022-11-04T12:22:22;2.73;;;1.43;;
2474;SDS011;1248;48.694;10.160;2022-11-04T12:24:54;3.23;;;1.83;;
2474;SDS011;1248;48.694;10.160;2022-11-04T12:27:31;5.40;;;1.70;;
2474;SDS011;1248;48.694;10.160;2022-11-04T12:30:05;3.00;;;2.10;;
2474;SDS011;1248;48.694;10.160;2022-11-04T12:32:38;3.53;;;1.67;;
2474;SDS011;1248;48.694;10.160;2022-11-04T12:35:15;2.77;;;1.30;;
2474;SDS011;1248;48.694;10.160;2022-11-04T12:37:51;2.13;;;1.40;;
2474;SDS011;1248;48.694;10.160;2022-11-04T12:40:26;2.77;;;1.43;;
2474;SDS011;1248;48.694;10.160;2022-11-04T12:43:00;6.37;;;1.30;;
2474;SDS011;1248;48.694;10.160;2022-11-04T12:45:40;6.83;;;2.10;;
2474;SDS011;1248;48.694;10.160;2022-11-04T12:48:16;2.93;;;1.53;;
2474;SDS011;1248;48.694;10.160;2022-11-04T12:50:55;5.33;;;1.80;;
2474;SDS011;1248;48.694;10.160;2022-11-04T12:56:16;4.50;;;1.77;;
2474;SDS011;1248;48.694;10.160;2022-11-04T12:58:46;2.90;;;1.53;;
2474;SDS011;1248;48.694;10.160;2022-11-04T13:01:28;1.93;;;1.70;;
2474;SDS011;1248;48.694;10.160;2022-11-04T13:04:00;3.10;;;1.50;;
2474;SDS011;1248;48.694;10.160;2022-11-04T13:06:31;3.00;;;1.63;;
2474;SDS011;1248;48.694;10.160;2022-11-04T13:09:00;2.97;;;1.13;;
2474;SDS011;1248;48.694;10.160;2022-11-04T13:11:30;4.37;;;1.53;;
2474;SDS011;1248;48.694;10.160;2022-11-04T13:14:01;3.70;;;2.03;;
2474;SDS011;1248;48.694;10.160;2022-11-04T13:16:32;2.67;;;1.20;;
2474;SDS011;1248;48.694;10.160;2022-11-04T13:19:01;1.50;;;1.20;;
2474;SDS011;1248;48.694;10.160;2022-11-04T13:21:29;3.17;;;1.37;;
2474;SDS011;1248;48.694;10.160;2022-11-04T13:24:00;3.97;;;1.23;;
2474;SDS011;1248;48.694;10.160;2022-11-04T13:26:30;2.70;;;1.33;;
2474;SDS011;1248;48.694;10.160;2022-11-04T13:28:59;2.03;;;1.50;;
2474;SDS011;1248;48.694;10.160;2022-11-04T13:31:30;7.40;;;1.70;;
2474;SDS011;1248;48.694;10.160;2022-11-04T13:34:05;5.97;;;1.40;;
2474;SDS011;1248;48.694;10.160;2022-11-04T13:36:37;5.10;;;1.60;;
2474;SDS011;1248;48.694;10.160;2022-11-04T13:39:10;3.10;;;1.10;;
2474;SDS011;1248;48.694;10.160;2022-11-04T13:41:49;3.17;;;1.10;;
2474;SDS011;1248;48.694;10.160;2022-11-04T13:44:24;4.33;;;1.50;;
2474;SDS011;1248;48.694;10.160;2022-11-04T13:46:54;5.57;;;1.20;;
2474;SDS011;1248;48.694;10.160;2022-11-04T13:49:23;6.60;;;1.87;;
2474;SDS011;1248;48.694;10.160;2022-11-04T13:52:02;2.37;;;1.40;;
2474;SDS011;1248;48.694;10.160;2022-11-04T13:54:33;1.40;;;1.20;;
2474;SDS011;1248;48.694;10.160;2022-11-04T13:57:02;2.33;;;1.30;;
2474;SDS011;1248;48.694;10.160;2022-11-04T13:59:31;3.10;;;1.23;;
2474;SDS011;1248;48.694;10.160;2022-11-04T14:04:58;3.90;;;1.60;;
2474;SDS011;1248;48.694;10.160;2022-11-04T14:08:09;3.40;;;1.40;;
2474;SDS011;1248;48.694;10.160;2022-11-04T14:10:42;3.70;;;1.47;;
2474;SDS011;1248;48.694;10.160;2022-11-04T14:16:36;4.33;;;1.40;;
2474;SDS011;1248;48.694;10.160;2022-11-04T14:22:22;2.40;;;1.60;;
2474;SDS011;1248;48.694;10.160;2022-11-04T14:24:55;4.23;;;1.47;;
2474;SDS011;1248;48.694;10.160;2022-11-04T14:27:24;6.97;;;1.50;;
2474;SDS011;1248;48.694;10.160;2022-11-04T14:29:53;6.63;;;1.70;;
2474;SDS011;1248;48.694;10.160;2022-11-04T14:32:22;3.27;;;1.40;;
2474;SDS011;1248;48.694;10.160;2022-11-04T14:34:58;3.43;;;1.37;;
2474;SDS011;1248;48.694;10.160;2022-11-04T14:37:29;5.90;;;1.57;;
2474;SDS011;1248;48.694;10.160;2022-11-04T14:39:59;6.37;;;1.20;;
2474;SDS011;1248;48.694;10.160;2022-11-04T14:42:40;5.83;;;1.63;;
2474;SDS011;1248;48.694;10.160;2022-11-04T14:45:10;8.43;;;2.50;;
2474;SDS011;1248;48.694;10.160;2022-11-04T14:47:42;5.80;;;1.87;;
2474;SDS011;1248;48.694;10.160;2022-11-04T14:50:15;4.70;;;1.63;;
2474;SDS011;1248;48.694;10.160;2022-11-04T14:52:44;3.63;;;1.87;;
2474;SDS011;1248;48.694;10.160;2022-11-04T14:55:14;2.80;;;1.70;;
2474;SDS011;1248;48.694;10.160;2022-11-04T14:57:44;4.30;;;1.57;;
2474;SDS011;1248;48.694;10.160;2022-11-04T15:00:26;4.30;;;1.80;;
2474;SDS011;1248;48.694;10.160;2022-11-04T15:02:59;7.00;;;2.47;;
2474;SDS011;1248;48.694;10.160;2022-11-04T15:05:27;6.33;;;2.00;;
2474;SDS011;1248;48.694;10.160;2022-11-04T15:07:57;2.60;;;1.60;;
2474;SDS011;1248;48.694;10.160;2022-11-04T15:10:26;4.90;;;1.90;;
2474;SDS011;1248;48.694;10.160;2022-11-04T15:12:57;11.20;;;2.30;;
2474;SDS011;1248;48.694;10.160;2022-11-04T15:15:27;3.40;;;1.70;;
2474;SDS011;1248;48.694;10.160;2022-11-04T15:17:59;3.43;;;1.93;;
2474;SDS011;1248;48.694;10.160;2022-11-04T15:20:28;5.10;;;2.03;;
2474;SDS011;1248;48.694;10.160;2022-11-04T15:22:56;6.17;;;2.27;;
2474;SDS011;1248;48.694;10.160;2022-11-04T15:25:26;6.00;;;1.90;;
2474;SDS011;1248;48.694;10.160;2022-11-04T15:27:53;5.27;;;1.70;;
2474;SDS011;1248;48.694;10.160;2022-11-04T15:30:21;4.53;;;2.10;;
2474;SDS011;1248;48.694;10.160;2022-11-04T15:32:54;3.83;;;1.80;;
2474;SDS011;1248;48.694;10.160;2022-11-04T15:35:22;5.30;;;2.97;;
2474;SDS011;1248;48.694;10.160;2022-11-04T15:37:49;6.40;;;2.30;;
2474;SDS011;1248;48.694;10.160;2022-11-04T15:40:18;4.57;;;2.33;;
2474;SDS011;1248;48.694;10.160;2022-11-04T15:42:48;3.70;;;1.90;;
2474;SDS011;1248;48.694;10.160;2022-11-04T15:45:16;5.90;;;2.23;;
2474;SDS011;1248;48.694;10.160;2022-11-04T15:50:52;3.83;;;2.57;;